Time;durP1;ratioP1;P1;durP2;ratioP2;P2;SDS_P1;SDS_P2;PMS_P1;PMS_P2;Temp;Humidity;BMP_temperature;BMP_pressure;BME280_temperature;BME280_humidity;BME280_pressure;Samples;Min_cycle;Max_cycle;Signal;HPM_P1;HPM_P2
2022/09/15 00:01:00;;;;;;;9.50;4.93;;;;;;;19.15;100.00;99225.56;5570382;32;35237;-67
2022/09/15 00:04:04;;;;;;;9.23;5.30;;;;;;;19.07;100.00;99215.25;5556732;32;34008;-67
2022/09/15 00:07:07;;;;;;;9.15;5.00;;;;;;;18.95;100.00;99206.50;5570305;32;34091;-67
2022/09/15 00:10:10;;;;;;;9.43;4.80;;;;;;;18.95;100.00;99193.87;5570254;32;34107;-67
2022/09/15 00:13:14;;;;;;;9.30;4.95;;;;;;;18.91;100.00;99182.00;5570294;32;34021;-67
2022/09/15 00:16:19;;;;;;;7.32;4.78;;;;;;;18.79;100.00;99165.19;5556240;32;32995;-67
2022/09/15 00:19:22;;;;;;;10.18;4.68;;;;;;;18.75;100.00;99131.81;5570203;32;34020;-67
2022/09/15 00:22:27;;;;;;;9.27;4.55;;;;;;;18.82;100.00;99137.81;5570165;32;33926;-67
2022/09/15 00:25:29;;;;;;;8.38;5.25;;;;;;;18.84;100.00;99126.81;5570004;32;34481;-67
2022/09/15 00:28:33;;;;;;;10.85;6.25;;;;;;;18.71;100.00;99135.25;5570045;32;33946;-67
2022/09/15 00:31:36;;;;;;;13.25;5.97;;;;;;;18.64;100.00;99160.44;5556313;32;34676;-66
2022/09/15 00:34:39;;;;;;;7.72;5.30;;;;;;;18.71;100.00;99181.75;5570083;32;35330;-67
2022/09/15 00:37:42;;;;;;;12.43;5.55;;;;;;;18.72;100.00;99199.50;5568780;32;33963;-67
2022/09/15 00:40:52;;;;;;;8.80;4.93;;;;;;;18.78;100.00;99227.25;5570058;32;34521;-67
2022/09/15 00:43:56;;;;;;;13.65;4.85;;;;;;;18.80;100.00;99235.84;5556407;32;33274;-67
2022/09/15 00:47:00;;;;;;;11.10;5.22;;;;;;;18.84;100.00;99245.03;5569922;32;34014;-67
2022/09/15 00:50:21;;;;;;;11.40;4.20;;;;;;;18.91;100.00;99251.88;5544882;32;32469;-67
2022/09/15 00:53:26;;;;;;;6.70;4.37;;;;;;;19.07;100.00;99258.25;5556163;32;35263;-68
2022/09/15 00:56:32;;;;;;;5.35;3.10;;;;;;;19.05;100.00;99263.88;5569704;32;34741;-68
2022/09/15 00:59:39;;;;;;;5.53;3.15;;;;;;;19.34;100.00;99264.50;5569749;32;34043;-68
2022/09/15 01:02:43;;;;;;;9.10;2.78;;;;;;;19.53;100.00;99252.38;5556055;32;34020;-68
2022/09/15 01:05:53;;;;;;;4.90;3.05;;;;;;;19.60;100.00;99259.44;5556032;32;33923;-68
2022/09/15 01:09:13;;;;;;;4.47;3.00;;;;;;;19.59;100.00;99255.09;5556265;32;33946;-67
2022/09/15 01:12:17;;;;;;;6.35;2.83;;;;;;;19.50;100.00;99249.38;5569520;32;34097;-67
2022/09/15 01:15:24;;;;;;;5.30;2.58;;;;;;;19.44;100.00;99256.56;5569533;32;33996;-67
2022/09/15 01:18:35;;;;;;;4.28;2.40;;;;;;;19.39;100.00;99256.47;5569456;32;33965;-66
2022/09/15 01:21:54;;;;;;;6.15;2.40;;;;;;;19.46;100.00;99254.44;5569461;32;34038;-67
2022/09/15 01:25:09;;;;;;;5.03;2.30;;;;;;;19.47;100.00;99255.25;5569547;32;33908;-67
2022/09/15 01:28:34;;;;;;;6.72;2.50;;;;;;;19.56;100.00;99258.31;5569123;31;34173;-67
2022/09/15 01:35:21;;;;;;;7.22;2.47;;;;;;;19.67;100.00;99257.34;5555200;32;34083;-67
2022/09/15 01:39:05;;;;;;;4.43;2.37;;;;;;;19.55;100.00;99251.31;5569230;32;34079;-67
2022/09/15 01:42:14;;;;;;;3.62;2.05;;;;;;;19.58;100.00;99248.09;5545331;32;33970;-67
2022/09/15 01:45:22;;;;;;;5.22;2.40;;;;;;;19.58;100.00;99253.47;5569001;32;35224;-67
2022/09/15 01:48:28;;;;;;;4.43;2.42;;;;;;;19.59;100.00;99261.31;5569791;32;35260;-67
2022/09/15 01:51:33;;;;;;;3.45;2.28;;;;;;;19.49;100.00;99266.56;5571814;32;33981;-67
2022/09/15 01:54:44;;;;;;;3.47;2.22;;;;;;;19.43;100.00;99262.97;5557709;32;33301;-68
2022/09/15 01:57:49;;;;;;;4.37;2.03;;;;;;;19.38;100.00;99254.84;5571349;32;33926;-68
2022/09/15 02:01:02;;;;;;;3.12;1.80;;;;;;;19.54;100.00;99255.88;5571729;32;34838;-67
2022/09/15 02:04:14;;;;;;;3.10;1.75;;;;;;;19.67;100.00;99258.16;5557697;32;32571;-68
2022/09/15 02:07:34;;;;;;;3.08;2.00;;;;;;;19.74;100.00;99257.97;5571341;32;34012;-68
2022/09/15 02:10:37;;;;;;;;;;;;;;;19.66;100.00;99263.78;5571915;32;34415;-67
2022/09/15 02:14:10;;;;;;;5.25;2.10;;;;;;;19.58;100.00;99259.69;5571391;32;34888;-67
2022/09/15 02:17:17;;;;;;;5.68;1.98;;;;;;;19.50;100.00;99268.22;5544441;32;32979;-67
2022/09/15 02:20:33;;;;;;;3.47;2.10;;;;;;;19.40;100.00;99262.69;5557470;32;32466;-67
2022/09/15 02:23:42;;;;;;;3.65;2.00;;;;;;;19.32;100.00;99255.84;5571133;32;34693;-67
2022/09/15 02:26:48;;;;;;;3.10;1.73;;;;;;;19.25;100.00;99263.31;5571173;32;34636;-67
2022/09/15 02:29:57;;;;;;;3.87;1.87;;;;;;;19.19;100.00;99260.81;5570992;32;34604;-67
2022/09/15 02:33:07;;;;;;;4.22;2.12;;;;;;;19.15;100.00;99267.75;5571323;32;34783;-67
2022/09/15 02:36:16;;;;;;;4.45;2.00;;;;;;;19.12;100.00;99262.88;5571268;32;34113;-67
2022/09/15 02:39:25;;;;;;;3.80;1.70;;;;;;;19.22;100.00;99263.00;5571032;32;34787;-68
2022/09/15 02:42:31;;;;;;;2.65;1.37;;;;;;;19.38;100.00;99271.00;5556992;32;34073;-68
2022/09/15 02:45:34;;;;;;;3.33;1.40;;;;;;;19.58;100.00;99278.50;5571176;32;34031;-67
2022/09/15 02:48:38;;;;;;;2.72;1.42;;;;;;;19.71;100.00;99279.97;5570969;32;33960;-67
2022/09/15 02:51:41;;;;;;;3.35;1.30;;;;;;;19.84;100.00;99285.78;5571018;32;33914;-68
2022/09/15 02:54:44;;;;;;;2.42;1.33;;;;;;;19.86;100.00;99280.94;5570864;32;33952;-68
2022/09/15 02:57:47;;;;;;;4.85;1.30;;;;;;;19.82;100.00;99282.53;5557470;32;34056;-67
2022/09/15 03:00:52;;;;;;;3.87;1.40;;;;;;;19.80;100.00;99275.78;5570168;32;34102;-68
2022/09/15 03:03:56;;;;;;;3.28;1.10;;;;;;;19.76;100.00;99271.94;5556911;32;33514;-69
2022/09/15 03:06:59;;;;;;;4.15;1.30;;;;;;;19.72;100.00;99263.59;5544491;32;34747;-69
2022/09/15 03:10:04;;;;;;;2.83;1.23;;;;;;;19.72;100.00;99268.16;5570869;32;34450;-69
2022/09/15 03:13:07;;;;;;;4.60;1.20;;;;;;;19.72;100.00;99254.69;5570836;32;33930;-69
2022/09/15 03:16:13;;;;;;;1.25;1.02;;;;;;;19.68;100.00;99264.34;5570811;32;34625;-69
2022/09/15 03:19:16;;;;;;;1.87;1.10;;;;;;;19.71;100.00;99255.75;5570727;32;34369;-68
2022/09/15 03:22:19;;;;;;;2.53;1.17;;;;;;;19.72;100.00;99266.28;5570797;32;33968;-68
2022/09/15 03:25:25;;;;;;;2.62;1.10;;;;;;;19.71;100.00;99274.59;5557018;32;34728;-67
2022/09/15 03:28:29;;;;;;;2.12;1.00;;;;;;;19.69;100.00;99268.66;5570527;32;34698;-68
2022/09/15 03:31:32;;;;;;;2.20;1.08;;;;;;;19.72;100.00;99268.16;5557099;32;34406;-68
2022/09/15 03:34:35;;;;;;;2.53;1.20;;;;;;;19.78;100.00;99276.03;5556868;32;34817;-69
2022/09/15 03:37:38;;;;;;;3.97;1.40;;;;;;;19.73;100.00;99267.91;5570597;32;34552;-68
2022/09/15 03:40:42;;;;;;;4.03;1.17;;;;;;;19.78;100.00;99264.44;5557270;32;33868;-69
2022/09/15 03:43:45;;;;;;;5.35;1.35;;;;;;;19.75;100.00;99262.28;5570593;32;33839;-68
2022/09/15 03:46:48;;;;;;;3.70;1.12;;;;;;;19.69;100.00;99263.28;5570718;32;33918;-68
2022/09/15 03:49:52;;;;;;;3.40;1.55;;;;;;;19.64;100.00;99264.06;5570442;32;33955;-69
2022/09/15 03:52:54;;;;;;;2.80;1.20;;;;;;;19.58;100.00;99264.25;5570399;32;35238;-67
2022/09/15 03:56:14;;;;;;;3.37;1.40;;;;;;;19.46;100.00;99261.72;5570817;32;35255;-68
2022/09/15 03:59:18;;;;;;;4.20;1.33;;;;;;;19.35;100.00;99259.94;5570357;32;33926;-68
2022/09/15 04:02:21;;;;;;;4.30;1.52;;;;;;;19.28;100.00;99265.50;5570686;32;33999;-67
2022/09/15 04:05:24;;;;;;;5.47;1.40;;;;;;;19.25;100.00;99262.50;5570243;32;34872;-67
2022/09/15 04:08:27;;;;;;;3.28;1.50;;;;;;;19.21;100.00;99262.19;5566341;32;125868;-68
2022/09/15 04:11:31;;;;;;;7.25;2.20;;;;;;;19.22;100.00;99281.84;5570022;32;34051;-67
2022/09/15 04:14:34;;;;;;;6.20;1.98;;;;;;;19.20;100.00;99287.47;5570243;32;33510;-67
2022/09/15 04:17:37;;;;;;;3.35;1.50;;;;;;;19.26;100.00;99288.34;5570353;32;33873;-67
2022/09/15 04:20:40;;;;;;;4.22;2.37;;;;;;;19.29;100.00;99293.19;5570166;32;34670;-67
2022/09/15 04:23:44;;;;;;;6.12;1.58;;;;;;;19.31;100.00;99293.78;5570532;32;35428;-67
2022/09/15 04:26:47;;;;;;;3.12;1.52;;;;;;;19.25;100.00;99287.53;5569870;32;34088;-67
2022/09/15 04:29:51;;;;;;;2.80;1.58;;;;;;;19.21;100.00;99285.59;5569949;32;34025;-67
2022/09/15 04:32:54;;;;;;;4.93;1.40;;;;;;;19.22;100.00;99287.22;5556403;32;34111;-67
2022/09/15 04:36:03;;;;;;;4.45;1.30;;;;;;;19.29;100.00;99295.88;5556172;32;34253;-67
2022/09/15 04:39:05;;;;;;;3.70;1.15;;;;;;;19.27;100.00;99306.87;5556074;32;33011;-67
2022/09/15 04:42:09;;;;;;;4.45;1.17;;;;;;;19.43;100.00;99314.09;5556431;32;34062;-67
2022/09/15 04:45:11;;;;;;;3.12;1.00;;;;;;;19.76;100.00;99306.94;5569903;32;33869;-67
2022/09/15 04:48:15;;;;;;;1.55;1.00;;;;;;;19.95;100.00;99302.81;5569813;32;34620;-68
2022/09/15 04:51:20;;;;;;;2.95;1.40;;;;;;;19.95;100.00;99298.25;5569703;32;34180;-66
2022/09/15 04:54:23;;;;;;;2.53;1.30;;;;;;;20.04;100.00;99301.31;5569634;32;34676;-66
2022/09/15 04:57:26;;;;;;;2.78;1.52;;;;;;;20.09;100.00;99306.72;5555495;32;32553;-67
2022/09/15 05:00:30;;;;;;;2.42;1.30;;;;;;;20.14;100.00;99292.53;5569676;32;33927;-68
2022/09/15 05:03:35;;;;;;;4.87;1.50;;;;;;;20.17;100.00;99287.44;5569438;32;35777;-68
2022/09/15 05:06:39;;;;;;;2.28;1.52;;;;;;;20.27;100.00;99287.50;5569514;32;34576;-67
2022/09/15 05:09:41;;;;;;;2.17;1.40;;;;;;;20.31;100.00;99285.13;5569323;32;34200;-69
2022/09/15 05:12:45;;;;;;;3.60;1.58;;;;;;;20.30;100.00;99284.31;5569393;32;33955;-67
2022/09/15 05:15:48;;;;;;;6.40;2.05;;;;;;;20.27;100.00;99297.47;5569516;32;33927;-67
2022/09/15 05:18:53;;;;;;;2.97;1.62;;;;;;;20.25;100.00;99294.22;5569631;32;34063;-67
2022/09/15 05:21:56;;;;;;;9.25;1.90;;;;;;;20.22;100.00;99308.19;5555058;32;32634;-69
2022/09/15 05:24:59;;;;;;;3.35;1.80;;;;;;;20.16;100.00;99301.13;5568246;32;34749;-68
2022/09/15 05:28:02;;;;;;;5.45;1.80;;;;;;;20.28;100.00;99334.12;5555400;32;34253;-68
2022/09/15 05:31:11;;;;;;;4.85;1.70;;;;;;;20.26;100.00;99342.44;5569263;32;34358;-66
2022/09/15 05:34:14;;;;;;;3.92;2.00;;;;;;;20.23;100.00;99332.19;5554806;32;33193;-66
2022/09/15 05:37:18;;;;;;;5.22;1.85;;;;;;;20.18;100.00;99339.41;5554280;32;34505;-66
2022/09/15 05:40:21;;;;;;;5.22;2.03;;;;;;;20.16;100.00;99350.44;5555141;32;33270;-68
2022/09/15 05:43:24;;;;;;;3.85;1.90;;;;;;;20.14;100.00;99352.53;5568331;32;34016;-67
2022/09/15 05:46:30;;;;;;;3.67;1.90;;;;;;;20.14;100.00;99365.22;5568647;32;35258;-68
2022/09/15 05:49:34;;;;;;;6.07;1.70;;;;;;;20.14;100.00;99349.06;5568320;32;33964;-67
2022/09/15 05:52:37;;;;;;;5.57;1.90;;;;;;;20.16;100.00;99363.88;5568028;32;34120;-67
2022/09/15 05:55:40;;;;;;;6.97;2.15;;;;;;;20.23;100.00;99366.38;5568074;32;34309;-67
2022/09/15 05:58:45;;;;;;;4.40;1.80;;;;;;;20.32;100.00;99352.22;5554201;32;33260;-69
2022/09/15 06:01:48;;;;;;;3.80;1.90;;;;;;;20.43;100.00;99355.81;5554388;32;34675;-67
2022/09/15 06:04:51;;;;;;;4.00;1.83;;;;;;;20.48;100.00;99339.69;5554588;32;33866;-69
2022/09/15 06:07:55;;;;;;;6.35;1.98;;;;;;;20.55;100.00;99336.78;5567927;32;34287;-69
2022/09/15 06:11:07;;;;;;;4.82;1.90;;;;;;;20.59;100.00;99343.28;5568051;32;34143;-68
2022/09/15 06:14:12;;;;;;;4.53;2.28;;;;;;;20.66;100.00;99341.19;5568117;32;34133;-68
2022/09/15 06:17:19;;;;;;;6.25;1.60;;;;;;;20.74;100.00;99362.25;5554098;32;32827;-68
2022/09/15 06:20:24;;;;;;;3.72;1.87;;;;;;;20.75;100.00;99348.53;5567787;32;33963;-69
2022/09/15 06:23:27;;;;;;;3.20;1.70;;;;;;;20.76;100.00;99346.66;5554117;32;33602;-69
2022/09/15 06:26:30;;;;;;;5.15;1.50;;;;;;;20.86;100.00;99351.28;5566723;32;34538;-67
2022/09/15 06:29:34;;;;;;;7.68;2.08;;;;;;;20.94;100.00;99353.50;5567391;32;34759;-69
2022/09/15 06:32:37;;;;;;;3.22;1.40;;;;;;;21.09;100.00;99365.19;5567063;32;33955;-69
2022/09/15 06:35:41;;;;;;;4.82;1.75;;;;;;;21.26;98.15;99378.53;5569869;32;34141;-69
2022/09/15 06:38:44;;;;;;;3.47;1.62;;;;;;;21.37;97.65;99380.22;5556800;32;34300;-69
2022/09/15 06:41:48;;;;;;;6.90;1.80;;;;;;;21.62;96.18;99379.50;5557165;32;33766;-69
2022/09/15 06:45:08;;;;;;;3.03;1.58;;;;;;;21.72;94.90;99378.75;5556995;32;32515;-69
2022/09/15 06:48:11;;;;;;;4.15;1.50;;;;;;;21.68;94.26;99392.78;5570615;32;34548;-69
2022/09/15 06:51:34;;;;;;;6.18;1.67;;;;;;;21.47;93.69;99382.16;5570546;32;33974;-69
2022/09/15 06:54:37;;;;;;;6.37;1.62;;;;;;;21.40;94.55;99384.25;5570523;32;34088;-69
2022/09/15 06:57:40;;;;;;;3.58;1.45;;;;;;;21.62;94.25;99387.62;5570533;32;34029;-69
2022/09/15 07:00:43;;;;;;;4.18;1.50;;;;;;;21.41;94.95;99397.50;5570574;32;33868;-68
2022/09/15 07:03:46;;;;;;;4.62;1.60;;;;;;;21.18;97.44;99395.22;5557197;32;32699;-68
2022/09/15 07:06:49;;;;;;;6.68;1.98;;;;;;;21.12;96.90;99388.94;5570668;32;34681;-69
2022/09/15 07:09:52;;;;;;;5.18;1.62;;;;;;;21.12;97.97;99391.63;5570456;32;34936;-70
2022/09/15 07:12:55;;;;;;;3.72;1.73;;;;;;;21.27;96.83;99393.63;5570993;32;34045;-68
2022/09/15 07:16:01;;;;;;;5.35;1.90;;;;;;;21.47;95.98;99401.03;5557010;32;34743;-67
2022/09/15 07:19:05;;;;;;;3.85;1.50;;;;;;;21.68;93.99;99419.78;5570891;32;33947;-69
2022/09/15 07:22:07;;;;;;;7.78;1.70;;;;;;;21.79;93.82;99419.78;5557271;32;32420;-68
2022/09/15 07:25:10;;;;;;;5.12;1.77;;;;;;;22.18;92.08;99412.94;5556667;32;32336;-68
2022/09/15 07:28:14;;;;;;;5.53;1.58;;;;;;;22.10;92.15;99416.16;5570144;32;34702;-69
2022/09/15 07:31:19;;;;;;;3.50;1.50;;;;;;;22.71;89.08;99413.56;5570428;32;34072;-70
2022/09/15 07:34:22;;;;;;;5.70;1.60;;;;;;;23.74;83.22;99413.94;5570466;32;34719;-68
2022/09/15 07:37:25;;;;;;;10.65;1.50;;;;;;;24.02;80.58;99424.09;5570331;32;34022;-69
2022/09/15 07:40:28;;;;;;;5.35;1.52;;;;;;;24.95;75.48;99426.75;5556291;32;33897;-70
2022/09/15 07:43:31;;;;;;;3.25;1.25;;;;;;;26.13;70.50;99435.25;5570863;32;34026;-69
2022/09/15 07:46:35;;;;;;;1.52;1.05;;;;;;;26.35;67.23;99430.06;5569719;32;34159;-69
2022/09/15 07:49:38;;;;;;;5.00;1.45;;;;;;;26.21;66.90;99423.72;5556517;32;32453;-69
2022/09/15 07:52:41;;;;;;;2.47;1.20;;;;;;;25.60;68.04;99429.94;5570165;32;34098;-69
2022/09/15 07:55:44;;;;;;;6.00;1.42;;;;;;;25.12;70.80;99422.81;5556252;32;33741;-70
2022/09/15 07:58:48;;;;;;;4.60;1.25;;;;;;;24.27;74.30;99416.94;5570145;32;33889;-69
2022/09/15 08:01:51;;;;;;;2.85;1.12;;;;;;;25.16;69.27;99432.00;5543404;32;32637;-68
2022/09/15 08:04:55;;;;;;;8.25;1.52;;;;;;;25.75;67.22;99429.78;5570124;32;33922;-69
2022/09/15 08:07:58;;;;;;;3.70;1.20;;;;;;;25.29;68.36;99431.31;5570058;32;33878;-70
2022/09/15 08:11:05;;;;;;;4.22;1.00;;;;;;;25.15;69.36;99431.19;5555721;32;33034;-70
2022/09/15 08:14:08;;;;;;;5.20;1.30;;;;;;;25.43;68.05;99424.94;5570054;32;34023;-69
2022/09/15 08:17:11;;;;;;;3.12;1.10;;;;;;;25.37;68.50;99428.78;5570071;32;34026;-71
2022/09/15 08:20:14;;;;;;;3.58;0.95;;;;;;;24.43;72.48;99432.84;5569901;32;34714;-70
2022/09/15 08:23:17;;;;;;;4.65;1.25;;;;;;;24.05;74.37;99428.16;5569789;32;34706;-69
2022/09/15 08:26:20;;;;;;;3.60;1.20;;;;;;;24.08;73.19;99441.12;5569518;32;34075;-70
2022/09/15 08:29:23;;;;;;;6.93;1.50;;;;;;;23.89;75.85;99435.53;5569949;32;34013;-70
2022/09/15 08:32:26;;;;;;;2.22;1.00;;;;;;;24.35;72.66;99427.22;5569798;32;34025;-69
2022/09/15 08:35:31;;;;;;;2.92;0.98;;;;;;;25.28;67.23;99425.09;5555365;32;33995;-69
2022/09/15 08:38:34;;;;;;;4.95;0.90;;;;;;;25.87;63.55;99429.34;5555309;32;32842;-69
2022/09/15 08:41:42;;;;;;;4.12;1.12;;;;;;;26.50;60.82;99412.72;5555729;32;33132;-70
2022/09/15 08:44:54;;;;;;;4.40;1.00;;;;;;;27.98;55.15;99402.38;5556185;32;33994;-70
2022/09/15 08:48:03;;;;;;;4.45;1.10;;;;;;;28.03;54.42;99409.66;5569363;32;34243;-70
2022/09/15 08:51:13;;;;;;;2.07;0.70;;;;;;;28.06;53.71;99411.75;5569106;32;33961;-70
2022/09/15 08:54:23;;;;;;;3.37;1.00;;;;;;;27.70;54.02;99414.41;5555836;32;33263;-70
2022/09/15 08:57:26;;;;;;;1.92;1.08;;;;;;;26.31;58.92;99405.38;5568430;32;34180;-71
2022/09/15 09:00:31;;;;;;;1.73;0.80;;;;;;;25.92;60.34;99407.53;5569476;32;34027;-69
2022/09/15 09:04:05;;;;;;;4.05;0.98;;;;;;;25.34;61.29;99395.97;5569308;32;34583;-69
2022/09/15 09:07:33;;;;;;;3.65;0.82;;;;;;;25.39;61.00;99385.06;5555261;32;32811;-69
2022/09/15 09:11:01;;;;;;;1.55;0.75;;;;;;;25.51;57.58;99377.34;5555313;32;34277;-69
2022/09/15 09:14:23;;;;;;;4.50;0.90;;;;;;;25.36;57.92;99372.88;5568323;32;34205;-70
2022/09/15 09:17:26;;;;;;;2.75;0.77;;;;;;;25.22;56.82;99379.28;5569257;32;33928;-70
2022/09/15 09:20:44;;;;;;;3.35;0.80;;;;;;;25.31;57.31;99374.84;5568994;32;33798;-67
2022/09/15 09:24:15;;;;;;;5.50;0.88;;;;;;;25.27;55.69;99374.59;5568938;32;34765;-69
2022/09/15 09:27:23;;;;;;;6.95;1.02;;;;;;;25.04;56.71;99356.38;5560003;32;34076;-68
2022/09/15 09:30:31;;;;;;;2.20;1.00;;;;;;;25.17;57.95;99352.19;5554823;32;33180;-69
2022/09/15 09:33:46;;;;;;;2.37;0.90;;;;;;;25.12;56.74;99343.00;5554853;32;34050;-69
2022/09/15 09:37:07;;;;;;;4.72;0.95;;;;;;;25.44;56.40;99352.41;5541890;32;32757;-70
2022/09/15 09:40:13;;;;;;;2.15;0.90;;;;;;;25.63;56.40;99355.19;5568673;32;34108;-69
2022/09/15 09:43:16;;;;;;;2.60;0.90;;;;;;;26.23;54.62;99361.75;5554439;32;32748;-68
2022/09/15 09:46:21;;;;;;;4.18;0.85;;;;;;;26.51;52.89;99352.59;5554971;32;33510;-70
2022/09/15 09:49:33;;;;;;;3.05;1.00;;;;;;;26.41;52.94;99350.03;5555122;32;33651;-69
2022/09/15 09:52:38;;;;;;;1.62;0.80;;;;;;;26.26;53.32;99351.06;5568763;32;33961;-68
2022/09/15 09:55:41;;;;;;;2.33;0.88;;;;;;;26.38;53.22;99345.19;5567874;32;33964;-69
2022/09/15 09:58:44;;;;;;;2.53;0.90;;;;;;;26.32;53.68;99340.94;5568711;32;34678;-70
2022/09/15 10:02:09;;;;;;;3.05;0.80;;;;;;;26.15;53.79;99332.44;5554907;32;34004;-68
2022/09/15 10:05:18;;;;;;;2.40;0.90;;;;;;;26.46;52.65;99339.06;5555009;32;33544;-67
2022/09/15 10:08:21;;;;;;;3.90;0.82;;;;;;;26.26;53.27;99334.75;5568307;32;34004;-68
2022/09/15 10:11:45;;;;;;;1.95;1.00;;;;;;;25.98;54.35;99327.56;5557333;32;33701;-68
2022/09/15 10:14:52;;;;;;;4.40;1.27;;;;;;;26.05;54.18;99311.66;5557559;32;33920;-69
2022/09/15 10:17:55;;;;;;;3.83;1.00;;;;;;;26.15;53.97;99316.94;5570792;32;34177;-69
2022/09/15 10:21:01;;;;;;;3.03;0.93;;;;;;;26.19;53.76;99303.59;5557357;32;33486;-66
2022/09/15 10:24:33;;;;;;;4.85;1.00;;;;;;;26.43;53.03;99298.06;5557040;32;33912;-69
2022/09/15 10:27:36;;;;;;;2.37;1.05;;;;;;;27.12;51.91;99278.81;5556365;32;32592;-68
2022/09/15 10:31:00;;;;;;;4.03;0.80;;;;;;;26.91;52.26;99271.38;5557027;32;32606;-68
2022/09/15 10:34:29;;;;;;;3.28;1.00;;;;;;;27.00;51.83;99270.37;5556694;32;34816;-67
2022/09/15 10:37:47;;;;;;;1.60;0.75;;;;;;;26.74;52.19;99272.72;5556617;32;33307;-68
2022/09/15 10:41:30;;;;;;;3.87;1.10;;;;;;;27.01;51.57;99273.91;5570471;32;35386;-68
2022/09/15 10:44:51;;;;;;;3.22;1.17;;;;;;;26.80;51.40;99274.25;5472495;32;34563;-69
2022/09/15 10:48:15;;;;;;;6.57;0.98;;;;;;;26.59;52.41;99275.72;5472638;32;33897;-68
2022/09/15 10:51:56;;;;;;;3.83;1.12;;;;;;;26.75;51.41;99287.94;5459801;32;33235;-70
2022/09/15 10:55:20;;;;;;;2.17;0.90;;;;;;;27.14;52.07;99283.97;5386524;33;32422;-68
2022/09/15 10:59:02;;;;;;;2.75;1.10;;;;;;;27.25;50.49;99280.72;5397998;33;33881;-68
2022/09/15 11:02:31;;;;;;;2.42;0.90;;;;;;;27.28;50.72;99278.50;5398111;33;33782;-69
2022/09/15 11:06:12;;;;;;;2.75;1.27;;;;;;;27.25;50.83;99274.50;5385733;33;32396;-68
2022/09/15 11:09:24;;;;;;;5.07;1.08;;;;;;;27.43;50.06;99273.56;5398130;33;33809;-70
2022/09/15 11:12:39;;;;;;;2.53;1.02;;;;;;;27.20;51.22;99275.41;5397866;33;33901;-67
2022/09/15 11:15:55;;;;;;;3.42;1.08;;;;;;;26.82;52.17;99272.03;5385742;33;33548;-68
2022/09/15 11:19:16;;;;;;;4.10;1.02;;;;;;;26.79;52.61;99264.47;5467889;32;33925;-68
2022/09/15 11:22:28;;;;;;;4.53;1.10;;;;;;;26.33;54.58;99271.84;5477597;32;32414;-69
2022/09/15 11:25:39;;;;;;;2.78;1.27;;;;;;;25.99;56.13;99268.56;5478597;32;32654;-68
2022/09/15 11:28:49;;;;;;;3.42;1.55;;;;;;;25.94;56.59;99272.19;5506152;32;34415;-69
2022/09/15 11:32:00;;;;;;;1.90;0.88;;;;;;;25.90;56.77;99260.28;5537140;32;32699;-69
2022/09/15 11:35:43;;;;;;;5.18;1.10;;;;;;;25.65;57.14;99266.91;5537279;32;32569;-68
2022/09/15 11:39:16;;;;;;;6.22;1.45;;;;;;;25.56;58.92;99260.53;5537198;32;32443;-69
2022/09/15 11:42:30;;;;;;;7.93;1.52;;;;;;;25.37;60.58;99256.91;5524332;32;32835;-67
2022/09/15 11:45:40;;;;;;;3.53;1.30;;;;;;;25.33;61.45;99258.59;5551315;32;33938;-68
2022/09/15 11:49:15;;;;;;;4.93;1.52;;;;;;;25.29;62.43;99239.37;5550924;32;33923;-68
2022/09/15 11:52:59;;;;;;;10.25;1.62;;;;;;;25.33;64.16;99231.44;5536054;32;33308;-69
2022/09/15 11:56:23;;;;;;;8.70;1.80;;;;;;;25.39;66.38;99214.81;5536386;32;33058;-69
2022/09/15 11:59:45;;;;;;;5.15;1.62;;;;;;;25.54;68.07;99202.94;5537122;32;32773;-69
2022/09/15 12:03:21;;;;;;;8.77;1.67;;;;;;;25.91;67.27;99189.31;5550776;32;34083;-69
2022/09/15 12:06:33;;;;;;;10.18;1.95;;;;;;;26.50;65.67;99190.47;5537152;32;34690;-69
2022/09/15 12:09:37;;;;;;;11.18;1.73;;;;;;;26.42;65.59;99203.97;5536637;32;32773;-68
2022/09/15 12:12:43;;;;;;;6.78;1.90;;;;;;;26.41;65.90;99205.06;5536943;32;32559;-69
2022/09/15 12:15:48;;;;;;;7.75;2.10;;;;;;;25.81;68.23;99207.69;5550355;32;33999;-67
2022/09/15 12:19:17;;;;;;;8.18;1.67;;;;;;;25.52;69.97;99213.25;5536851;32;33226;-67
2022/09/15 12:22:42;;;;;;;6.22;1.70;;;;;;;25.09;72.29;99217.94;5550502;32;34068;-67
2022/09/15 12:26:03;;;;;;;7.40;2.22;;;;;;;24.73;74.09;99203.97;5537021;32;32546;-69
2022/09/15 12:29:25;;;;;;;8.02;1.50;;;;;;;24.61;75.29;99198.94;5550077;32;34040;-69
2022/09/15 12:32:33;;;;;;;6.03;1.90;;;;;;;24.54;76.77;99190.34;5550191;32;34169;-68
2022/09/15 12:35:37;;;;;;;6.43;2.13;;;;;;;24.22;78.77;99195.53;5550764;32;34131;-68
2022/09/15 12:38:47;;;;;;;7.68;1.90;;;;;;;23.78;82.04;99190.19;5536448;32;33033;-69
2022/09/15 12:41:51;;;;;;;;;;;;;;;23.25;86.69;99184.56;5550688;32;34040;-69
2022/09/15 12:45:00;;;;;;;7.85;2.12;;;;;;;22.72;92.54;99177.25;5550695;32;34320;-69
2022/09/15 12:48:17;;;;;;;13.90;2.60;;;;;;;21.95;100.00;99165.78;5537031;32;34017;-69
2022/09/15 12:51:25;;;;;;;12.52;2.60;;;;;;;21.76;100.00;99172.75;5550393;32;33990;-69
2022/09/15 12:54:31;;;;;;;7.18;2.12;;;;;;;21.39;100.00;99167.63;5550396;32;34678;-70
2022/09/15 12:57:36;;;;;;;7.43;2.47;;;;;;;21.47;100.00;99156.28;5536300;32;32787;-68
2022/09/15 13:00:42;;;;;;;6.87;2.42;;;;;;;21.33;100.00;99162.47;5523742;32;32592;-68
2022/09/15 13:04:05;;;;;;;5.18;2.17;;;;;;;21.08;100.00;99195.56;5549922;32;34911;-67
2022/09/15 13:07:14;;;;;;;6.97;2.37;;;;;;;20.75;100.00;99207.56;5549964;32;33983;-67
2022/09/15 13:10:26;;;;;;;;;;;;;;;20.34;100.00;99195.72;5550733;32;34812;-74
2022/09/15 13:13:44;;;;;;;9.02;2.87;;;;;;;19.87;100.00;99217.97;5536625;32;35501;-73
2022/09/15 13:16:53;;;;;;;6.40;2.40;;;;;;;19.58;100.00;99219.31;5536188;32;34349;-72
2022/09/15 13:20:00;;;;;;;7.32;2.50;;;;;;;19.24;100.00;99220.53;5536703;32;33663;-74
2022/09/15 13:23:07;;;;;;;10.85;3.05;;;;;;;18.92;100.00;99209.69;5549926;32;33933;-72
2022/09/15 13:26:16;;;;;;;5.95;2.42;;;;;;;18.87;100.00;99209.63;5537879;32;32419;-72
2022/09/15 13:29:21;;;;;;;5.85;2.03;;;;;;;18.86;100.00;99216.06;5569057;32;34047;-72
2022/09/15 13:32:43;;;;;;;3.85;1.30;;;;;;;18.66;100.00;99195.13;5569165;32;35409;-71
2022/09/15 13:36:07;;;;;;;4.62;1.87;;;;;;;18.25;100.00;99189.12;5568824;32;34121;-71
2022/09/15 13:39:44;;;;;;;5.57;1.60;;;;;;;17.89;100.00;99211.13;5555390;32;32457;-71
2022/09/15 13:43:09;;;;;;;11.18;2.70;;;;;;;17.81;100.00;99241.06;5569016;32;33969;-74
2022/09/15 13:46:36;;;;;;;27.52;5.28;;;;;;;17.62;100.00;99229.69;5571272;32;34596;-74
2022/09/15 13:50:24;;;;;;;10.02;3.20;;;;;;;17.49;100.00;99213.06;5571358;32;33886;-74
2022/09/15 13:53:33;;;;;;;13.23;3.85;;;;;;;17.50;100.00;99228.09;5544391;32;32858;-74
2022/09/15 13:56:38;;;;;;;10.25;3.33;;;;;;;17.77;100.00;99210.38;5571270;32;34641;-74
2022/09/15 13:59:41;;;;;;;11.93;3.60;;;;;;;17.69;100.00;99205.41;5571281;32;33892;-72
2022/09/15 14:02:46;;;;;;;15.70;3.22;;;;;;;17.68;100.00;99227.94;5571136;32;33908;-72
2022/09/15 14:05:55;;;;;;;6.87;2.72;;;;;;;17.71;100.00;99217.56;5557572;32;32467;-73
2022/09/15 14:09:05;;;;;;;14.23;3.30;;;;;;;17.64;100.00;99191.91;5571145;32;34139;-74
2022/09/15 14:12:10;;;;;;;10.07;2.80;;;;;;;17.56;100.00;99205.69;5557045;32;32596;-73
2022/09/15 14:15:19;;;;;;;6.37;2.67;;;;;;;17.47;100.00;99233.97;5557280;32;33273;-71
2022/09/15 14:18:22;;;;;;;15.67;3.50;;;;;;;17.44;100.00;99229.06;5570941;32;34355;-73
2022/09/15 14:21:31;;;;;;;5.68;2.53;;;;;;;17.63;100.00;99195.66;5570895;32;33869;-75
2022/09/15 14:24:39;;;;;;;6.20;2.20;;;;;;;17.69;100.00;99192.00;5558481;32;32528;-76
2022/09/15 14:27:44;;;;;;;11.40;3.17;;;;;;;17.66;100.00;99204.03;5558818;32;33769;-76
2022/09/15 14:30:47;;;;;;;8.35;2.60;;;;;;;17.60;100.00;99185.41;5556983;32;32443;-76
2022/09/15 14:33:50;;;;;;;8.93;2.40;;;;;;;17.58;100.00;99182.94;5544303;32;32314;-72
2022/09/15 14:36:59;;;;;;;8.55;2.22;;;;;;;17.54;100.00;99192.53;5556841;32;32275;-75
2022/09/15 14:40:18;;;;;;;6.90;2.47;;;;;;;17.42;100.00;99205.19;5570847;32;34049;-73
2022/09/15 14:43:24;;;;;;;5.47;2.30;;;;;;;17.31;100.00;99222.13;5570935;32;34245;-73
2022/09/15 14:46:35;;;;;;;6.25;2.47;;;;;;;17.32;100.00;99240.66;5570889;32;33937;-72
2022/09/15 14:49:38;;;;;;;8.77;3.22;;;;;;;17.42;100.00;99248.09;5544031;32;32781;-72